sensor_id;sensor_type;location;lat;lon;timestamp;P1;durP1;ratioP1;P2;durP2;ratioP2
8411;SDS011;4243;49.296;11.348;2023-04-01T00:01:11;115.70;;;2.70;;
8411;SDS011;4243;49.296;11.348;2023-04-01T00:03:41;115.97;;;2.60;;
8411;SDS011;4243;49.296;11.348;2023-04-01T00:06:12;116.47;;;2.87;;
8411;SDS011;4243;49.296;11.348;2023-04-01T00:08:42;115.97;;;2.63;;
8411;SDS011;4243;49.296;11.348;2023-04-01T00:11:11;116.17;;;2.70;;
8411;SDS011;4243;49.296;11.348;2023-04-01T00:13:38;115.67;;;2.70;;
8411;SDS011;4243;49.296;11.348;2023-04-01T00:16:06;115.87;;;2.70;;
8411;SDS011;4243;49.296;11.348;2023-04-01T00:18:45;115.70;;;2.73;;
8411;SDS011;4243;49.296;11.348;2023-04-01T00:21:14;115.80;;;2.60;;
8411;SDS011;4243;49.296;11.348;2023-04-01T00:23:41;115.97;;;2.70;;
8411;SDS011;4243;49.296;11.348;2023-04-01T00:26:09;115.77;;;2.63;;
8411;SDS011;4243;49.296;11.348;2023-04-01T00:28:38;115.70;;;2.80;;
8411;SDS011;4243;49.296;11.348;2023-04-01T00:31:06;116.17;;;2.70;;
8411;SDS011;4243;49.296;11.348;2023-04-01T00:33:36;115.80;;;2.70;;
8411;SDS011;4243;49.296;11.348;2023-04-01T00:36:13;115.77;;;2.60;;
8411;SDS011;4243;49.296;11.348;2023-04-01T00:38:44;115.87;;;2.70;;
8411;SDS011;4243;49.296;11.348;2023-04-01T00:41:12;115.77;;;2.70;;
8411;SDS011;4243;49.296;11.348;2023-04-01T00:43:46;116.07;;;2.70;;
8411;SDS011;4243;49.296;11.348;2023-04-01T00:46:17;114.77;;;2.70;;
8411;SDS011;4243;49.296;11.348;2023-04-01T00:48:47;115.70;;;2.70;;
8411;SDS011;4243;49.296;11.348;2023-04-01T00:51:22;115.17;;;2.80;;
8411;SDS011;4243;49.296;11.348;2023-04-01T00:53:55;115.97;;;2.80;;
8411;SDS011;4243;49.296;11.348;2023-04-01T00:56:26;116.07;;;2.80;;
8411;SDS011;4243;49.296;11.348;2023-04-01T00:59:46;116.30;;;2.80;;
8411;SDS011;4243;49.296;11.348;2023-04-01T01:01:59;116.60;;;2.70;;
8411;SDS011;4243;49.296;11.348;2023-04-01T01:04:33;115.57;;;2.70;;
8411;SDS011;4243;49.296;11.348;2023-04-01T01:07:13;116.10;;;2.70;;
8411;SDS011;4243;49.296;11.348;2023-04-01T01:15:45;116.07;;;2.70;;
8411;SDS011;4243;49.296;11.348;2023-04-01T01:18:35;116.53;;;2.70;;
8411;SDS011;4243;49.296;11.348;2023-04-01T01:27:30;116.10;;;2.73;;
8411;SDS011;4243;49.296;11.348;2023-04-01T01:30:05;116.47;;;2.80;;
8411;SDS011;4243;49.296;11.348;2023-04-01T01:33:06;115.60;;;2.70;;
8411;SDS011;4243;49.296;11.348;2023-04-01T01:36:04;115.77;;;2.70;;
8411;SDS011;4243;49.296;11.348;2023-04-01T01:38:36;116.67;;;2.80;;
8411;SDS011;4243;49.296;11.348;2023-04-01T01:41:05;115.37;;;2.70;;
8411;SDS011;4243;49.296;11.348;2023-04-01T01:43:37;115.93;;;2.70;;
8411;SDS011;4243;49.296;11.348;2023-04-01T01:46:12;115.50;;;2.90;;
8411;SDS011;4243;49.296;11.348;2023-04-01T01:48:50;115.87;;;2.70;;
8411;SDS011;4243;49.296;11.348;2023-04-01T01:51:20;116.57;;;2.70;;
8411;SDS011;4243;49.296;11.348;2023-04-01T01:53:50;114.97;;;2.60;;
8411;SDS011;4243;49.296;11.348;2023-04-01T01:56:19;116.37;;;2.77;;
8411;SDS011;4243;49.296;11.348;2023-04-01T01:58:58;115.60;;;2.67;;
8411;SDS011;4243;49.296;11.348;2023-04-01T02:01:34;115.70;;;2.70;;
8411;SDS011;4243;49.296;11.348;2023-04-01T02:04:12;116.07;;;2.70;;
8411;SDS011;4243;49.296;11.348;2023-04-01T02:06:45;115.77;;;2.70;;
8411;SDS011;4243;49.296;11.348;2023-04-01T02:09:23;116.07;;;2.70;;
8411;SDS011;4243;49.296;11.348;2023-04-01T02:11:51;115.00;;;2.73;;
8411;SDS011;4243;49.296;11.348;2023-04-01T02:17:13;115.10;;;2.70;;
8411;SDS011;4243;49.296;11.348;2023-04-01T02:19:55;115.70;;;2.70;;
8411;SDS011;4243;49.296;11.348;2023-04-01T02:22:36;115.10;;;2.70;;
8411;SDS011;4243;49.296;11.348;2023-04-01T02:25:12;116.60;;;2.80;;
8411;SDS011;4243;49.296;11.348;2023-04-01T02:27:47;114.70;;;2.70;;
8411;SDS011;4243;49.296;11.348;2023-04-01T02:30:15;116.17;;;2.70;;
8411;SDS011;4243;49.296;11.348;2023-04-01T02:32:45;115.50;;;2.70;;
8411;SDS011;4243;49.296;11.348;2023-04-01T02:35:15;114.80;;;2.67;;
8411;SDS011;4243;49.296;11.348;2023-04-01T02:37:45;115.77;;;2.67;;
8411;SDS011;4243;49.296;11.348;2023-04-01T02:40:15;116.17;;;2.67;;
8411;SDS011;4243;49.296;11.348;2023-04-01T02:42:43;115.03;;;2.67;;
8411;SDS011;4243;49.296;11.348;2023-04-01T02:45:11;115.60;;;2.67;;
8411;SDS011;4243;49.296;11.348;2023-04-01T02:47:40;116.10;;;2.60;;
8411;SDS011;4243;49.296;11.348;2023-04-01T02:50:08;115.57;;;2.70;;
8411;SDS011;4243;49.296;11.348;2023-04-01T02:52:36;116.40;;;2.60;;
8411;SDS011;4243;49.296;11.348;2023-04-01T02:55:04;115.50;;;2.60;;
8411;SDS011;4243;49.296;11.348;2023-04-01T02:57:33;115.83;;;2.70;;
8411;SDS011;4243;49.296;11.348;2023-04-01T03:00:00;115.70;;;2.63;;
8411;SDS011;4243;49.296;11.348;2023-04-01T03:02:28;115.43;;;2.70;;
8411;SDS011;4243;49.296;11.348;2023-04-01T03:04:55;115.77;;;2.60;;
8411;SDS011;4243;49.296;11.348;2023-04-01T03:07:23;116.07;;;2.70;;
8411;SDS011;4243;49.296;11.348;2023-04-01T03:09:50;114.87;;;2.80;;
8411;SDS011;4243;49.296;11.348;2023-04-01T03:12:25;116.20;;;2.70;;
8411;SDS011;4243;49.296;11.348;2023-04-01T03:14:52;116.07;;;2.73;;
8411;SDS011;4243;49.296;11.348;2023-04-01T03:17:19;115.47;;;2.67;;
8411;SDS011;4243;49.296;11.348;2023-04-01T03:19:46;115.47;;;2.67;;
8411;SDS011;4243;49.296;11.348;2023-04-01T03:22:14;116.00;;;2.63;;
8411;SDS011;4243;49.296;11.348;2023-04-01T03:24:42;116.27;;;2.67;;
8411;SDS011;4243;49.296;11.348;2023-04-01T03:27:09;115.97;;;2.60;;
8411;SDS011;4243;49.296;11.348;2023-04-01T03:29:36;115.73;;;2.63;;
8411;SDS011;4243;49.296;11.348;2023-04-01T03:32:04;116.27;;;2.70;;
8411;SDS011;4243;49.296;11.348;2023-04-01T03:34:32;115.57;;;2.70;;
8411;SDS011;4243;49.296;11.348;2023-04-01T03:37:00;116.03;;;2.67;;
8411;SDS011;4243;49.296;11.348;2023-04-01T03:39:27;115.27;;;2.63;;
8411;SDS011;4243;49.296;11.348;2023-04-01T03:41:54;115.37;;;2.60;;
8411;SDS011;4243;49.296;11.348;2023-04-01T03:44:22;114.37;;;2.67;;
8411;SDS011;4243;49.296;11.348;2023-04-01T03:46:52;115.70;;;2.67;;
8411;SDS011;4243;49.296;11.348;2023-04-01T03:49:19;115.87;;;2.70;;
8411;SDS011;4243;49.296;11.348;2023-04-01T03:51:48;115.77;;;2.63;;
8411;SDS011;4243;49.296;11.348;2023-04-01T03:54:15;115.77;;;2.60;;
8411;SDS011;4243;49.296;11.348;2023-04-01T03:56:43;115.60;;;2.67;;
8411;SDS011;4243;49.296;11.348;2023-04-01T03:59:10;116.00;;;2.70;;
8411;SDS011;4243;49.296;11.348;2023-04-01T04:01:39;115.10;;;2.67;;
8411;SDS011;4243;49.296;11.348;2023-04-01T04:04:06;115.77;;;2.60;;
8411;SDS011;4243;49.296;11.348;2023-04-01T04:06:38;115.50;;;2.67;;
8411;SDS011;4243;49.296;11.348;2023-04-01T04:09:05;115.67;;;2.60;;
8411;SDS011;4243;49.296;11.348;2023-04-01T04:11:40;115.30;;;2.70;;
8411;SDS011;4243;49.296;11.348;2023-04-01T04:14:08;115.00;;;2.63;;
8411;SDS011;4243;49.296;11.348;2023-04-01T04:16:35;114.90;;;2.63;;
8411;SDS011;4243;49.296;11.348;2023-04-01T04:19:04;114.47;;;2.60;;
8411;SDS011;4243;49.296;11.348;2023-04-01T04:21:32;115.67;;;2.63;;
8411;SDS011;4243;49.296;11.348;2023-04-01T04:24:00;116.03;;;2.60;;
8411;SDS011;4243;49.296;11.348;2023-04-01T04:26:47;115.50;;;2.63;;
8411;SDS011;4243;49.296;11.348;2023-04-01T04:29:14;115.20;;;2.70;;
8411;SDS011;4243;49.296;11.348;2023-04-01T04:31:42;115.67;;;2.70;;
8411;SDS011;4243;49.296;11.348;2023-04-01T04:34:09;115.40;;;2.63;;
8411;SDS011;4243;49.296;11.348;2023-04-01T04:36:36;115.67;;;2.67;;
8411;SDS011;4243;49.296;11.348;2023-04-01T04:39:04;115.57;;;2.60;;
8411;SDS011;4243;49.296;11.348;2023-04-01T04:41:33;115.60;;;2.60;;
8411;SDS011;4243;49.296;11.348;2023-04-01T04:44:03;114.90;;;2.60;;
8411;SDS011;4243;49.296;11.348;2023-04-01T04:46:31;115.97;;;2.60;;
8411;SDS011;4243;49.296;11.348;2023-04-01T04:49:09;115.87;;;2.63;;
8411;SDS011;4243;49.296;11.348;2023-04-01T04:51:36;115.57;;;2.70;;
8411;SDS011;4243;49.296;11.348;2023-04-01T04:54:04;115.87;;;2.70;;
8411;SDS011;4243;49.296;11.348;2023-04-01T04:56:46;115.80;;;2.70;;
8411;SDS011;4243;49.296;11.348;2023-04-01T04:59:14;115.67;;;2.70;;
8411;SDS011;4243;49.296;11.348;2023-04-01T05:02:01;115.30;;;2.70;;
8411;SDS011;4243;49.296;11.348;2023-04-01T05:04:29;115.77;;;2.60;;
8411;SDS011;4243;49.296;11.348;2023-04-01T05:07:01;115.77;;;2.67;;
8411;SDS011;4243;49.296;11.348;2023-04-01T05:09:29;114.80;;;2.63;;
8411;SDS011;4243;49.296;11.348;2023-04-01T05:11:58;114.60;;;2.67;;
8411;SDS011;4243;49.296;11.348;2023-04-01T05:14:32;116.27;;;2.70;;
8411;SDS011;4243;49.296;11.348;2023-04-01T05:17:09;114.47;;;2.70;;
8411;SDS011;4243;49.296;11.348;2023-04-01T05:19:38;115.57;;;2.63;;
8411;SDS011;4243;49.296;11.348;2023-04-01T05:22:08;115.67;;;2.67;;
8411;SDS011;4243;49.296;11.348;2023-04-01T05:24:36;114.80;;;2.73;;
8411;SDS011;4243;49.296;11.348;2023-04-01T05:27:04;115.97;;;2.70;;
8411;SDS011;4243;49.296;11.348;2023-04-01T05:29:33;116.20;;;2.63;;
8411;SDS011;4243;49.296;11.348;2023-04-01T05:32:04;115.20;;;2.60;;
8411;SDS011;4243;49.296;11.348;2023-04-01T05:34:33;115.60;;;2.60;;
8411;SDS011;4243;49.296;11.348;2023-04-01T05:37:00;114.27;;;2.63;;
8411;SDS011;4243;49.296;11.348;2023-04-01T05:39:27;115.60;;;2.60;;
8411;SDS011;4243;49.296;11.348;2023-04-01T05:41:55;116.00;;;2.70;;
8411;SDS011;4243;49.296;11.348;2023-04-01T05:44:22;115.67;;;2.63;;
8411;SDS011;4243;49.296;11.348;2023-04-01T05:47:02;115.77;;;2.63;;
8411;SDS011;4243;49.296;11.348;2023-04-01T05:49:31;115.97;;;2.70;;
8411;SDS011;4243;49.296;11.348;2023-04-01T05:52:00;115.77;;;2.60;;
8411;SDS011;4243;49.296;11.348;2023-04-01T05:54:28;115.57;;;2.70;;
8411;SDS011;4243;49.296;11.348;2023-04-01T05:56:55;114.50;;;2.60;;
8411;SDS011;4243;49.296;11.348;2023-04-01T05:59:22;115.27;;;2.63;;
8411;SDS011;4243;49.296;11.348;2023-04-01T06:01:50;116.07;;;2.63;;
8411;SDS011;4243;49.296;11.348;2023-04-01T06:04:18;113.50;;;2.60;;
8411;SDS011;4243;49.296;11.348;2023-04-01T06:06:46;116.20;;;2.60;;
8411;SDS011;4243;49.296;11.348;2023-04-01T06:09:15;114.73;;;2.60;;
8411;SDS011;4243;49.296;11.348;2023-04-01T06:15:22;116.30;;;2.60;;
8411;SDS011;4243;49.296;11.348;2023-04-01T06:24:48;116.23;;;2.60;;
8411;SDS011;4243;49.296;11.348;2023-04-01T06:33:34;115.77;;;2.57;;
8411;SDS011;4243;49.296;11.348;2023-04-01T06:39:32;115.60;;;2.60;;
8411;SDS011;4243;49.296;11.348;2023-04-01T06:46:36;115.97;;;2.50;;
8411;SDS011;4243;49.296;11.348;2023-04-01T06:49:48;113.87;;;2.60;;
8411;SDS011;4243;49.296;11.348;2023-04-01T06:56:19;116.30;;;2.60;;
8411;SDS011;4243;49.296;11.348;2023-04-01T06:59:08;115.40;;;2.50;;
8411;SDS011;4243;49.296;11.348;2023-04-01T07:01:45;115.40;;;2.50;;
8411;SDS011;4243;49.296;11.348;2023-04-01T07:04:27;115.37;;;2.53;;
8411;SDS011;4243;49.296;11.348;2023-04-01T07:07:29;115.57;;;2.60;;
8411;SDS011;4243;49.296;11.348;2023-04-01T07:10:13;114.87;;;2.60;;
8411;SDS011;4243;49.296;11.348;2023-04-01T07:13:09;115.33;;;2.60;;
8411;SDS011;4243;49.296;11.348;2023-04-01T07:18:50;116.07;;;2.57;;
8411;SDS011;4243;49.296;11.348;2023-04-01T07:22:33;115.20;;;2.50;;
8411;SDS011;4243;49.296;11.348;2023-04-01T07:25:21;115.00;;;2.50;;
8411;SDS011;4243;49.296;11.348;2023-04-01T07:28:33;115.87;;;2.60;;
8411;SDS011;4243;49.296;11.348;2023-04-01T07:31:25;115.07;;;2.60;;
8411;SDS011;4243;49.296;11.348;2023-04-01T07:37:42;115.30;;;2.50;;
8411;SDS011;4243;49.296;11.348;2023-04-01T07:46:55;115.93;;;2.50;;
8411;SDS011;4243;49.296;11.348;2023-04-01T07:50:28;115.97;;;2.53;;
8411;SDS011;4243;49.296;11.348;2023-04-01T07:56:18;115.67;;;2.50;;
8411;SDS011;4243;49.296;11.348;2023-04-01T07:59:30;116.13;;;2.50;;
8411;SDS011;4243;49.296;11.348;2023-04-01T08:04:12;114.67;;;2.50;;
8411;SDS011;4243;49.296;11.348;2023-04-01T08:07:43;115.50;;;2.43;;
8411;SDS011;4243;49.296;11.348;2023-04-01T08:10:57;115.53;;;2.53;;
8411;SDS011;4243;49.296;11.348;2023-04-01T08:14:16;115.10;;;2.50;;
8411;SDS011;4243;49.296;11.348;2023-04-01T08:26:21;115.37;;;2.50;;
8411;SDS011;4243;49.296;11.348;2023-04-01T08:29:19;115.47;;;2.50;;
8411;SDS011;4243;49.296;11.348;2023-04-01T08:32:18;114.80;;;2.40;;
8411;SDS011;4243;49.296;11.348;2023-04-01T08:35:11;115.40;;;2.40;;
8411;SDS011;4243;49.296;11.348;2023-04-01T08:38:17;116.20;;;2.40;;
8411;SDS011;4243;49.296;11.348;2023-04-01T08:41:00;114.80;;;2.40;;
8411;SDS011;4243;49.296;11.348;2023-04-01T08:50:50;116.30;;;2.50;;
8411;SDS011;4243;49.296;11.348;2023-04-01T08:57:29;113.90;;;2.40;;
8411;SDS011;4243;49.296;11.348;2023-04-01T09:00:53;115.10;;;2.40;;
8411;SDS011;4243;49.296;11.348;2023-04-01T09:20:52;115.30;;;2.40;;
8411;SDS011;4243;49.296;11.348;2023-04-01T09:24:31;115.87;;;2.50;;
8411;SDS011;4243;49.296;11.348;2023-04-01T09:27:45;114.70;;;2.40;;
8411;SDS011;4243;49.296;11.348;2023-04-01T09:37:54;113.97;;;2.50;;
8411;SDS011;4243;49.296;11.348;2023-04-01T09:44:18;115.77;;;2.50;;
8411;SDS011;4243;49.296;11.348;2023-04-01T09:47:16;115.77;;;2.57;;
8411;SDS011;4243;49.296;11.348;2023-04-01T09:50:38;115.97;;;2.60;;
8411;SDS011;4243;49.296;11.348;2023-04-01T09:53:28;115.27;;;2.50;;
8411;SDS011;4243;49.296;11.348;2023-04-01T10:01:21;116.03;;;2.60;;
8411;SDS011;4243;49.296;11.348;2023-04-01T10:04:17;115.67;;;2.60;;
8411;SDS011;4243;49.296;11.348;2023-04-01T10:13:34;115.87;;;2.50;;
8411;SDS011;4243;49.296;11.348;2023-04-01T10:23:03;115.73;;;2.53;;
8411;SDS011;4243;49.296;11.348;2023-04-01T10:35:37;115.57;;;2.53;;
8411;SDS011;4243;49.296;11.348;2023-04-01T10:46:10;115.67;;;2.50;;
8411;SDS011;4243;49.296;11.348;2023-04-01T10:49:38;115.37;;;2.60;;
8411;SDS011;4243;49.296;11.348;2023-04-01T10:56:34;115.10;;;2.57;;
8411;SDS011;4243;49.296;11.348;2023-04-01T11:19:07;113.60;;;2.50;;
8411;SDS011;4243;49.296;11.348;2023-04-01T11:22:45;115.67;;;2.50;;
8411;SDS011;4243;49.296;11.348;2023-04-01T11:36:11;115.77;;;2.50;;
8411;SDS011;4243;49.296;11.348;2023-04-01T11:43:10;115.47;;;2.47;;
8411;SDS011;4243;49.296;11.348;2023-04-01T11:46:31;115.57;;;2.53;;
8411;SDS011;4243;49.296;11.348;2023-04-01T11:52:55;116.20;;;2.60;;
8411;SDS011;4243;49.296;11.348;2023-04-01T11:59:29;116.10;;;2.70;;
8411;SDS011;4243;49.296;11.348;2023-04-01T12:05:49;115.57;;;2.60;;
8411;SDS011;4243;49.296;11.348;2023-04-01T12:12:10;115.63;;;2.60;;
8411;SDS011;4243;49.296;11.348;2023-04-01T12:15:33;115.77;;;2.50;;
8411;SDS011;4243;49.296;11.348;2023-04-01T12:22:12;115.67;;;2.60;;
8411;SDS011;4243;49.296;11.348;2023-04-01T12:24:49;116.07;;;2.60;;
8411;SDS011;4243;49.296;11.348;2023-04-01T12:27:38;115.47;;;2.60;;
8411;SDS011;4243;49.296;11.348;2023-04-01T12:31:13;115.70;;;2.50;;
8411;SDS011;4243;49.296;11.348;2023-04-01T12:34:09;115.57;;;2.50;;
8411;SDS011;4243;49.296;11.348;2023-04-01T12:37:21;116.10;;;2.57;;
8411;SDS011;4243;49.296;11.348;2023-04-01T12:46:47;114.17;;;2.60;;
8411;SDS011;4243;49.296;11.348;2023-04-01T13:07:00;115.00;;;2.57;;
8411;SDS011;4243;49.296;11.348;2023-04-01T13:13:16;115.57;;;2.60;;
8411;SDS011;4243;49.296;11.348;2023-04-01T13:16:12;115.10;;;2.60;;
8411;SDS011;4243;49.296;11.348;2023-04-01T13:21:50;115.47;;;2.60;;
8411;SDS011;4243;49.296;11.348;2023-04-01T13:24:41;115.97;;;2.57;;
8411;SDS011;4243;49.296;11.348;2023-04-01T13:33:08;114.30;;;2.60;;
8411;SDS011;4243;49.296;11.348;2023-04-01T13:42:02;114.07;;;2.50;;
8411;SDS011;4243;49.296;11.348;2023-04-01T13:51:40;115.57;;;2.60;;
8411;SDS011;4243;49.296;11.348;2023-04-01T14:22:38;115.70;;;2.63;;
8411;SDS011;4243;49.296;11.348;2023-04-01T14:32:07;115.97;;;2.70;;
8411;SDS011;4243;49.296;11.348;2023-04-01T14:35:46;113.67;;;2.50;;
8411;SDS011;4243;49.296;11.348;2023-04-01T14:41:51;115.33;;;2.60;;
8411;SDS011;4243;49.296;11.348;2023-04-01T14:51:16;115.37;;;2.60;;
8411;SDS011;4243;49.296;11.348;2023-04-01T14:54:46;115.47;;;2.70;;
8411;SDS011;4243;49.296;11.348;2023-04-01T15:00:09;115.70;;;2.57;;
8411;SDS011;4243;49.296;11.348;2023-04-01T15:03:07;115.53;;;2.60;;
8411;SDS011;4243;49.296;11.348;2023-04-01T15:06:13;113.90;;;2.53;;
8411;SDS011;4243;49.296;11.348;2023-04-01T15:18:03;115.60;;;2.57;;
8411;SDS011;4243;49.296;11.348;2023-04-01T15:24:10;114.90;;;2.60;;
8411;SDS011;4243;49.296;11.348;2023-04-01T15:26:54;115.10;;;2.67;;
8411;SDS011;4243;49.296;11.348;2023-04-01T15:35:43;115.17;;;2.57;;
8411;SDS011;4243;49.296;11.348;2023-04-01T15:48:23;115.60;;;2.60;;
8411;SDS011;4243;49.296;11.348;2023-04-01T16:00:44;115.57;;;2.60;;
8411;SDS011;4243;49.296;11.348;2023-04-01T16:07:09;114.60;;;2.57;;
8411;SDS011;4243;49.296;11.348;2023-04-01T16:19:13;115.03;;;2.70;;
8411;SDS011;4243;49.296;11.348;2023-04-01T16:22:20;115.07;;;2.70;;
8411;SDS011;4243;49.296;11.348;2023-04-01T16:28:04;114.70;;;2.60;;
8411;SDS011;4243;49.296;11.348;2023-04-01T16:31:00;115.40;;;2.67;;
8411;SDS011;4243;49.296;11.348;2023-04-01T16:39:36;115.73;;;2.70;;
8411;SDS011;4243;49.296;11.348;2023-04-01T16:42:46;115.07;;;2.73;;
8411;SDS011;4243;49.296;11.348;2023-04-01T16:45:28;115.87;;;2.70;;
8411;SDS011;4243;49.296;11.348;2023-04-01T16:52:03;115.57;;;2.67;;
8411;SDS011;4243;49.296;11.348;2023-04-01T16:54:44;114.80;;;2.63;;
8411;SDS011;4243;49.296;11.348;2023-04-01T16:57:27;114.70;;;2.60;;
8411;SDS011;4243;49.296;11.348;2023-04-01T17:00:26;115.27;;;2.70;;
8411;SDS011;4243;49.296;11.348;2023-04-01T17:03:37;115.27;;;2.63;;
8411;SDS011;4243;49.296;11.348;2023-04-01T17:09:19;115.03;;;2.63;;
8411;SDS011;4243;49.296;11.348;2023-04-01T17:12:53;115.27;;;2.60;;
8411;SDS011;4243;49.296;11.348;2023-04-01T17:22:32;114.40;;;2.60;;
8411;SDS011;4243;49.296;11.348;2023-04-01T17:31:30;115.00;;;2.70;;
8411;SDS011;4243;49.296;11.348;2023-04-01T17:34:04;115.87;;;2.60;;
8411;SDS011;4243;49.296;11.348;2023-04-01T17:40:21;114.00;;;2.60;;
8411;SDS011;4243;49.296;11.348;2023-04-01T17:46:33;115.33;;;2.60;;
8411;SDS011;4243;49.296;11.348;2023-04-01T17:49:53;115.07;;;2.70;;
8411;SDS011;4243;49.296;11.348;2023-04-01T17:52:59;115.67;;;2.67;;
8411;SDS011;4243;49.296;11.348;2023-04-01T17:56:03;113.70;;;2.53;;
8411;SDS011;4243;49.296;11.348;2023-04-01T18:05:04;115.17;;;2.60;;
8411;SDS011;4243;49.296;11.348;2023-04-01T18:08:23;115.27;;;2.60;;
8411;SDS011;4243;49.296;11.348;2023-04-01T18:12:40;115.10;;;2.60;;
8411;SDS011;4243;49.296;11.348;2023-04-01T18:15:46;115.07;;;2.60;;
8411;SDS011;4243;49.296;11.348;2023-04-01T18:18:35;115.00;;;2.60;;
8411;SDS011;4243;49.296;11.348;2023-04-01T18:21:50;115.67;;;2.60;;
8411;SDS011;4243;49.296;11.348;2023-04-01T18:24:54;115.67;;;2.63;;
8411;SDS011;4243;49.296;11.348;2023-04-01T18:28:14;115.27;;;2.60;;
8411;SDS011;4243;49.296;11.348;2023-04-01T18:31:17;113.27;;;2.60;;
8411;SDS011;4243;49.296;11.348;2023-04-01T18:33:56;114.87;;;2.50;;
8411;SDS011;4243;49.296;11.348;2023-04-01T18:36:48;115.17;;;2.60;;
8411;SDS011;4243;49.296;11.348;2023-04-01T18:39:37;115.27;;;2.53;;
8411;SDS011;4243;49.296;11.348;2023-04-01T18:42:30;115.17;;;2.53;;
8411;SDS011;4243;49.296;11.348;2023-04-01T18:48:33;114.70;;;2.53;;
8411;SDS011;4243;49.296;11.348;2023-04-01T18:51:47;115.80;;;2.60;;
8411;SDS011;4243;49.296;11.348;2023-04-01T18:58:17;115.47;;;2.60;;
8411;SDS011;4243;49.296;11.348;2023-04-01T19:01:16;114.97;;;2.60;;
8411;SDS011;4243;49.296;11.348;2023-04-01T19:04:16;115.07;;;2.60;;
8411;SDS011;4243;49.296;11.348;2023-04-01T19:07:01;115.33;;;2.60;;
8411;SDS011;4243;49.296;11.348;2023-04-01T19:16:40;114.60;;;2.60;;
8411;SDS011;4243;49.296;11.348;2023-04-01T19:22:43;113.73;;;2.50;;
8411;SDS011;4243;49.296;11.348;2023-04-01T19:25:37;115.37;;;2.53;;
8411;SDS011;4243;49.296;11.348;2023-04-01T19:28:35;115.37;;;2.60;;
8411;SDS011;4243;49.296;11.348;2023-04-01T19:38:26;114.97;;;2.60;;
8411;SDS011;4243;49.296;11.348;2023-04-01T19:47:14;115.83;;;2.60;;
8411;SDS011;4243;49.296;11.348;2023-04-01T19:53:25;115.27;;;2.60;;
8411;SDS011;4243;49.296;11.348;2023-04-01T19:56:17;115.27;;;2.60;;
8411;SDS011;4243;49.296;11.348;2023-04-01T20:01:57;115.23;;;2.60;;
8411;SDS011;4243;49.296;11.348;2023-04-01T20:04:39;115.57;;;2.60;;
8411;SDS011;4243;49.296;11.348;2023-04-01T20:10:09;114.10;;;2.63;;
8411;SDS011;4243;49.296;11.348;2023-04-01T20:16:18;115.17;;;2.60;;
8411;SDS011;4243;49.296;11.348;2023-04-01T20:18:58;115.17;;;2.60;;
8411;SDS011;4243;49.296;11.348;2023-04-01T20:21:41;114.63;;;2.60;;
8411;SDS011;4243;49.296;11.348;2023-04-01T20:26:47;114.73;;;2.60;;
8411;SDS011;4243;49.296;11.348;2023-04-01T20:45:48;115.10;;;2.60;;
8411;SDS011;4243;49.296;11.348;2023-04-01T20:52:29;115.50;;;2.60;;
8411;SDS011;4243;49.296;11.348;2023-04-01T21:08:49;113.93;;;2.63;;
8411;SDS011;4243;49.296;11.348;2023-04-01T21:12:14;115.03;;;2.60;;
8411;SDS011;4243;49.296;11.348;2023-04-01T21:15:30;114.80;;;2.60;;
8411;SDS011;4243;49.296;11.348;2023-04-01T21:22:04;115.37;;;2.63;;
8411;SDS011;4243;49.296;11.348;2023-04-01T21:28:16;115.20;;;2.60;;
8411;SDS011;4243;49.296;11.348;2023-04-01T21:34:33;113.80;;;2.60;;
8411;SDS011;4243;49.296;11.348;2023-04-01T21:37:27;115.00;;;2.63;;
8411;SDS011;4243;49.296;11.348;2023-04-01T21:49:49;114.97;;;2.67;;
8411;SDS011;4243;49.296;11.348;2023-04-01T21:59:35;115.37;;;2.63;;
8411;SDS011;4243;49.296;11.348;2023-04-01T22:08:34;114.97;;;2.67;;
8411;SDS011;4243;49.296;11.348;2023-04-01T22:11:30;115.80;;;2.70;;
8411;SDS011;4243;49.296;11.348;2023-04-01T22:14:43;114.77;;;2.60;;
8411;SDS011;4243;49.296;11.348;2023-04-01T22:17:38;115.57;;;2.63;;
8411;SDS011;4243;49.296;11.348;2023-04-01T22:32:28;113.17;;;2.53;;
8411;SDS011;4243;49.296;11.348;2023-04-01T22:50:33;115.13;;;2.50;;
8411;SDS011;4243;49.296;11.348;2023-04-01T22:53:19;114.97;;;2.60;;
8411;SDS011;4243;49.296;11.348;2023-04-01T22:56:33;115.53;;;2.67;;
8411;SDS011;4243;49.296;11.348;2023-04-01T22:59:25;114.77;;;2.50;;
8411;SDS011;4243;49.296;11.348;2023-04-01T23:02:34;115.07;;;2.60;;
8411;SDS011;4243;49.296;11.348;2023-04-01T23:05:34;114.47;;;2.60;;
8411;SDS011;4243;49.296;11.348;2023-04-01T23:08:37;115.17;;;2.60;;
8411;SDS011;4243;49.296;11.348;2023-04-01T23:11:45;114.90;;;2.63;;
8411;SDS011;4243;49.296;11.348;2023-04-01T23:17:11;115.37;;;2.60;;
8411;SDS011;4243;49.296;11.348;2023-04-01T23:26:31;115.10;;;2.60;;
8411;SDS011;4243;49.296;11.348;2023-04-01T23:29:18;115.40;;;2.70;;
8411;SDS011;4243;49.296;11.348;2023-04-01T23:31:58;114.67;;;2.60;;
8411;SDS011;4243;49.296;11.348;2023-04-01T23:34:29;115.07;;;2.60;;
8411;SDS011;4243;49.296;11.348;2023-04-01T23:37:03;115.27;;;2.60;;
8411;SDS011;4243;49.296;11.348;2023-04-01T23:39:56;114.87;;;2.53;;
8411;SDS011;4243;49.296;11.348;2023-04-01T23:42:26;114.87;;;2.60;;
8411;SDS011;4243;49.296;11.348;2023-04-01T23:45:11;113.97;;;2.60;;
8411;SDS011;4243;49.296;11.348;2023-04-01T23:47:46;114.70;;;2.53;;
8411;SDS011;4243;49.296;11.348;2023-04-01T23:50:22;114.73;;;2.70;;
8411;SDS011;4243;49.296;11.348;2023-04-01T23:52:53;114.50;;;2.57;;
8411;SDS011;4243;49.296;11.348;2023-04-01T23:55:46;114.93;;;2.70;;
